createdAt,value
2023-01-26T00:01:07.239Z,2.86
2023-01-26T00:06:04.797Z,2.42
2023-01-26T00:11:03.771Z,2.44
2023-01-26T00:16:00.667Z,2.46
2023-01-26T00:20:59.994Z,2.71
2023-01-26T00:25:56.709Z,2.89
2023-01-26T00:31:01.658Z,3.01
2023-01-26T00:35:58.531Z,2.93
2023-01-26T00:40:56.677Z,2.42
2023-01-26T00:45:53.979Z,2.56
2023-01-26T00:50:50.722Z,2.71
2023-01-26T00:55:47.326Z,2.30
2023-01-26T01:00:44.102Z,2.60
2023-01-26T01:05:41.978Z,2.54
2023-01-26T01:10:38.568Z,2.54
2023-01-26T01:15:35.264Z,2.22
2023-01-26T01:20:32.095Z,2.38
2023-01-26T01:25:29.385Z,2.48
2023-01-26T01:30:26.107Z,2.59
2023-01-26T01:35:22.667Z,2.23
2023-01-26T01:40:19.446Z,2.62
2023-01-26T01:45:29.651Z,2.83
2023-01-26T01:50:26.470Z,2.36
2023-01-26T01:55:25.164Z,2.26
2023-01-26T02:00:23.241Z,2.25
2023-01-26T02:05:25.451Z,2.36
2023-01-26T02:10:22.734Z,2.69
2023-01-26T02:15:19.581Z,2.32
2023-01-26T02:20:20.207Z,2.59
2023-01-26T02:25:22.074Z,2.21
2023-01-26T02:30:24.193Z,2.32
2023-01-26T02:35:21.039Z,2.24
2023-01-26T02:40:24.951Z,2.54
2023-01-26T02:45:23.731Z,2.32
2023-01-26T02:50:20.562Z,2.49
2023-01-26T02:55:24.472Z,2.25
2023-01-26T03:00:23.306Z,2.24
2023-01-26T03:05:21.627Z,2.51
2023-01-26T03:10:18.450Z,2.29
2023-01-26T03:15:33.080Z,2.48
2023-01-26T03:21:03.275Z,2.56
2023-01-26T03:26:20.586Z,2.89
2023-01-26T03:31:17.472Z,2.65
2023-01-26T03:36:15.359Z,2.86
2023-01-26T03:41:30.414Z,2.66
2023-01-26T03:46:45.570Z,2.24
2023-01-26T03:52:01.850Z,2.50
2023-01-26T03:56:59.086Z,2.36
2023-01-26T04:02:15.117Z,2.47
2023-01-26T04:07:30.942Z,2.22
2023-01-26T04:12:27.676Z,2.21
2023-01-26T04:17:57.131Z,2.19
2023-01-26T04:22:54.818Z,2.20
2023-01-26T04:27:53.036Z,2.22
2023-01-26T04:32:50.800Z,2.47
2023-01-26T04:37:48.398Z,2.52
2023-01-26T04:42:46.068Z,2.59
2023-01-26T04:47:44.045Z,2.06
2023-01-26T04:52:42.355Z,2.39
2023-01-26T04:57:39.255Z,1.93
2023-01-26T05:02:36.763Z,2.35
2023-01-26T05:07:33.571Z,2.38
2023-01-26T05:12:33.503Z,2.15
2023-01-26T05:18:09.780Z,2.27
2023-01-26T05:23:29.069Z,2.25
2023-01-26T05:28:40.917Z,2.49
2023-01-26T05:33:38.663Z,2.14
2023-01-26T05:38:38.083Z,2.09
2023-01-26T05:43:34.940Z,2.32
2023-01-26T05:48:41.053Z,2.41
2023-01-26T05:53:37.865Z,2.45
2023-01-26T05:58:34.827Z,2.34
2023-01-26T06:03:31.609Z,2.87
2023-01-26T06:08:29.328Z,2.41
2023-01-26T06:13:45.925Z,2.66
2023-01-26T06:18:49.511Z,2.26
2023-01-26T06:23:50.031Z,2.41
2023-01-26T06:28:47.818Z,2.39
2023-01-26T06:33:44.633Z,2.21
2023-01-26T06:38:45.230Z,2.03
2023-01-26T06:43:45.198Z,1.94
2023-01-26T06:48:43.913Z,1.91
2023-01-26T06:53:43.512Z,1.89
2023-01-26T06:59:16.180Z,2.07
2023-01-26T07:04:31.267Z,2.18
2023-01-26T07:09:27.917Z,2.02
2023-01-26T07:14:26.323Z,1.79
2023-01-26T07:19:38.809Z,2.09
2023-01-26T07:25:37.590Z,1.97
2023-01-26T07:36:56.342Z,2.13
2023-01-26T08:01:29.405Z,1.86
2023-01-26T08:06:47.752Z,1.87
2023-01-26T08:13:49.315Z,2.21
2023-01-26T08:18:42.912Z,2.42
2023-01-26T08:24:28.601Z,2.72
2023-01-26T08:49:09.937Z,2.62
2023-01-26T09:23:48.891Z,2.42
2023-01-26T09:35:00.126Z,2.62
2023-01-26T09:39:57.707Z,2.77
2023-01-26T09:45:00.315Z,2.92
2023-01-26T09:50:02.389Z,3.03
2023-01-26T09:55:01.163Z,2.67
2023-01-26T10:00:14.249Z,2.77
2023-01-26T10:05:14.897Z,2.53
2023-01-26T10:10:17.643Z,2.63
2023-01-26T10:15:22.888Z,2.63
2023-01-26T10:20:27.128Z,2.87
2023-01-26T10:25:27.974Z,2.87
2023-01-26T10:30:25.518Z,3.36
2023-01-26T10:35:23.523Z,3.09
2023-01-26T10:40:20.482Z,2.95
2023-01-26T10:45:24.850Z,3.16
2023-01-26T10:50:23.362Z,3.25
2023-01-26T10:55:21.079Z,3.11
2023-01-26T11:00:23.708Z,3.09
2023-01-26T11:05:21.391Z,3.20
2023-01-26T11:10:25.211Z,3.02
2023-01-26T11:15:23.108Z,3.06
2023-01-26T11:20:41.629Z,3.20
2023-01-26T11:25:48.482Z,3.20
2023-01-26T11:30:51.117Z,3.06
2023-01-26T11:35:56.311Z,3.02
2023-01-26T11:40:58.445Z,2.94
2023-01-26T11:46:12.768Z,3.34
2023-01-26T11:51:16.295Z,3.17
2023-01-26T11:56:19.172Z,3.32
2023-01-26T12:01:19.823Z,3.11
2023-01-26T12:06:18.100Z,3.12
2023-01-26T12:11:24.680Z,3.06
2023-01-26T12:16:28.587Z,3.01
2023-01-26T12:21:26.622Z,3.18
2023-01-26T12:26:25.710Z,3.43
2023-01-26T12:31:28.268Z,3.57
2023-01-26T12:36:34.188Z,3.43
2023-01-26T12:41:36.077Z,3.64
2023-01-26T12:46:35.464Z,3.59
2023-01-26T12:51:36.531Z,3.55
2023-01-26T12:56:39.884Z,3.77
2023-01-26T13:01:38.028Z,3.37
2023-01-26T13:06:34.639Z,3.38
2023-01-26T13:11:42.867Z,3.58
2023-01-26T13:16:39.871Z,3.63
2023-01-26T13:21:42.171Z,3.90
2023-01-26T13:26:44.208Z,3.61
2023-01-26T13:31:41.009Z,3.86
2023-01-26T13:36:40.772Z,3.85
2023-01-26T13:41:44.222Z,4.00
2023-01-26T13:46:43.358Z,3.75
2023-01-26T13:51:43.095Z,3.84
2023-01-26T13:56:41.214Z,4.20
2023-01-26T14:01:42.626Z,4.06
2023-01-26T14:06:42.412Z,4.27
2023-01-26T14:11:39.415Z,4.42
2023-01-26T14:16:36.946Z,4.21
2023-01-26T14:21:44.849Z,4.05
2023-01-26T14:26:45.110Z,3.83
2023-01-26T14:31:41.930Z,4.14
2023-01-26T14:36:39.347Z,4.26
2023-01-26T14:41:37.154Z,4.20
2023-01-26T14:46:37.544Z,4.04
2023-01-26T14:51:34.816Z,4.11
2023-01-26T14:56:34.801Z,4.10
2023-01-26T15:01:31.666Z,4.30
2023-01-26T15:06:29.262Z,4.55
2023-01-26T15:11:45.691Z,4.37
2023-01-26T15:16:52.560Z,4.31
2023-01-26T15:21:50.272Z,4.56
2023-01-26T15:26:47.046Z,4.56
2023-01-26T15:31:43.866Z,4.31
2023-01-26T15:36:48.493Z,4.52
2023-01-26T15:41:46.275Z,4.29
2023-01-26T15:46:43.337Z,4.56
2023-01-26T15:51:40.088Z,4.48
2023-01-26T15:56:37.494Z,4.62
2023-01-26T16:01:41.600Z,4.31
2023-01-26T16:12:54.460Z,4.42
2023-01-26T16:17:51.449Z,4.27
2023-01-26T16:22:48.279Z,4.57
2023-01-26T16:27:45.254Z,4.37
2023-01-26T16:32:44.204Z,4.10
2023-01-26T16:37:42.620Z,4.25
2023-01-26T16:42:40.831Z,4.45
2023-01-26T16:47:37.601Z,4.34
2023-01-26T16:52:35.270Z,4.66
2023-01-26T16:57:31.995Z,4.66
2023-01-26T17:02:32.763Z,4.62
2023-01-26T17:07:29.705Z,4.68
2023-01-26T17:12:27.229Z,4.63
2023-01-26T17:17:23.821Z,4.86
2023-01-26T17:22:20.438Z,4.77
2023-01-26T17:27:17.084Z,5.08
2023-01-26T17:32:14.865Z,5.04
2023-01-26T17:37:11.657Z,5.05
2023-01-26T17:42:08.460Z,4.86
2023-01-26T17:47:05.721Z,5.16
2023-01-26T17:52:03.304Z,5.09
2023-01-26T17:57:00.218Z,5.10
2023-01-26T18:01:56.944Z,5.16
2023-01-26T18:06:53.630Z,5.23
2023-01-26T18:11:50.965Z,5.36
2023-01-26T18:16:53.409Z,5.48
2023-01-26T18:21:51.188Z,5.34
2023-01-26T18:26:49.640Z,5.32
2023-01-26T18:31:56.198Z,5.14
2023-01-26T18:36:54.321Z,5.51
2023-01-26T18:41:52.469Z,5.41
2023-01-26T18:46:52.647Z,5.43
2023-01-26T18:51:51.515Z,5.41
2023-01-26T18:56:48.337Z,5.51
2023-01-26T19:01:45.208Z,5.33
2023-01-26T19:06:42.614Z,5.46
2023-01-26T19:11:39.600Z,5.29
2023-01-26T19:16:36.453Z,5.10
2023-01-26T19:21:34.074Z,5.08
2023-01-26T19:26:31.826Z,4.96
2023-01-26T19:31:28.745Z,5.09
2023-01-26T19:36:26.353Z,4.97
2023-01-26T19:41:24.280Z,5.02
2023-01-26T19:46:21.992Z,4.95
2023-01-26T19:51:20.494Z,4.86
2023-01-26T19:56:19.503Z,4.85
2023-01-26T20:01:17.017Z,4.76
2023-01-26T20:06:15.046Z,4.72
2023-01-26T20:11:11.910Z,4.64
2023-01-26T20:16:09.335Z,4.76
2023-01-26T20:21:06.693Z,4.41
2023-01-26T20:26:05.156Z,4.68
2023-01-26T20:31:05.893Z,4.49
2023-01-26T20:36:05.324Z,4.56
2023-01-26T20:41:06.891Z,4.36
2023-01-26T20:46:05.225Z,4.49
2023-01-26T20:51:08.768Z,4.41
2023-01-26T20:56:08.709Z,4.51
2023-01-26T21:01:06.025Z,4.48
2023-01-26T21:06:02.860Z,4.44
2023-01-26T21:11:01.783Z,4.36
2023-01-26T21:15:59.830Z,4.23
2023-01-26T21:20:57.384Z,4.40
2023-01-26T21:25:57.706Z,4.26
2023-01-26T21:31:01.590Z,4.13
2023-01-26T21:35:59.078Z,4.26
2023-01-26T21:40:59.265Z,4.23
2023-01-26T21:45:56.556Z,4.24
2023-01-26T21:51:13.518Z,4.08
2023-01-26T21:56:10.265Z,4.04
2023-01-26T22:01:07.814Z,4.15
2023-01-26T22:06:05.522Z,4.33
2023-01-26T22:11:02.197Z,4.25
2023-01-26T22:15:59.534Z,4.22
2023-01-26T22:20:56.352Z,4.15
2023-01-26T22:25:53.524Z,4.43
2023-01-26T22:30:50.158Z,4.22
2023-01-26T22:35:46.858Z,4.42
2023-01-26T22:40:44.858Z,4.35
2023-01-26T22:45:42.073Z,4.23
2023-01-26T22:50:38.793Z,4.50
2023-01-26T22:55:38.768Z,4.19
2023-01-26T23:00:35.681Z,4.26
2023-01-26T23:05:33.425Z,4.23
2023-01-26T23:10:30.411Z,4.12
2023-01-26T23:15:27.216Z,4.10
2023-01-26T23:20:23.951Z,4.04
2023-01-26T23:25:39.432Z,4.00
2023-01-26T23:30:36.136Z,4.24
2023-01-26T23:35:32.884Z,4.19
2023-01-26T23:40:31.334Z,3.95
2023-01-26T23:45:30.495Z,3.93
2023-01-26T23:50:27.904Z,4.01
2023-01-26T23:55:24.582Z,3.93
